Terminal Aerodrome Forecast
Issued by NWS

Current Version | Previous Version | Graphics & Text | Print | Product List | Glossary On
Versions: 1 2 3 4 5 6 7 8 9 10 11 12 13 14 15 16 17 18 19 20 21 22 23 24 25 26
000
FTUS41 KRNK 250526
TAFLWB
TAF
KLWB 250526Z 2506/2606 00000KT 5SM BR BKN050
     FM250800 00000KT 2SM BR BKN030 BKN120
      TEMPO 2510/2513 1/4SM FG OVC001
     FM251330 26004KT P6SM BKN035
     FM251900 27006KT P6SM SCT040 BKN250
     FM260300 00000KT 4SM BR SCT100=

USA.gov is the U.S. government's official web portal to all federal, state and local government web resources and services.